Time;durP1;ratioP1;P1;durP2;ratioP2;P2;SDS_P1;SDS_P2;PMS_P1;PMS_P2;Temp;Humidity;BMP_temperature;BMP_pressure;BME280_temperature;BME280_humidity;BME280_pressure;Samples;Min_cycle;Max_cycle;Signal;HPM_P1;HPM_P2
2022/04/28 00:01:43;;;;;;;;;;;;;;;17.31;59.53;103080.22;4898110;29;19919;-80
2022/04/28 00:04:08;;;;;;;;;;;;;;;17.30;59.66;103079.34;4898028;29;19919;-80
2022/04/28 00:06:33;;;;;;;;;;;;;;;17.31;59.17;103077.59;4899661;29;19930;-80
2022/04/28 00:08:58;;;;;;;;;;;;;;;17.30;58.73;103079.34;4896248;29;19919;-81
2022/04/28 00:11:24;;;;;;;;;;;;;;;17.31;58.94;103085.41;4892569;29;19942;-81
2022/04/28 00:13:49;;;;;;;;;;;;;;;17.31;58.08;103082.81;4907166;29;19986;-81
2022/04/28 00:16:15;;;;;;;;;;;;;;;17.30;58.78;103083.66;4894356;29;19919;-80
2022/04/28 00:18:40;;;;;;;;;;;;;;;17.28;58.51;103089.69;4894559;29;19927;-81
2022/04/28 00:21:06;;;;;;;;;;;;;;;17.29;58.74;103082.78;4909249;29;19916;-80
2022/04/28 00:23:31;;;;;;;;;;;;;;;17.28;58.72;103081.00;4893097;29;19998;-80
2022/04/28 00:25:56;;;;;;;;;;;;;;;17.28;59.01;103079.28;4893653;29;19923;-80
2022/04/28 00:28:21;;;;;;;;;;;;;;;17.28;58.22;103078.41;4893679;29;19919;-78
2022/04/28 00:30:47;;;;;;;;;;;;;;;17.28;59.14;103088.81;4892908;29;20434;-80
2022/04/28 00:33:12;;;;;;;;;;;;;;;17.28;58.70;103086.22;4905448;29;20362;-80
2022/04/28 00:35:38;;;;;;;;;;;;;;;17.28;58.62;103091.44;4888772;29;19923;-80
2022/04/28 00:38:03;;;;;;;;;;;;;;;17.28;58.07;103089.69;4889499;29;20407;-80
2022/04/28 00:40:29;;;;;;;;;;;;;;;17.27;58.47;103087.94;4889147;29;19920;-79
2022/04/28 00:43:18;;;;;;;;;;;;;;;17.26;58.04;103080.97;4904978;29;19979;-79
2022/04/28 00:45:39;;;;;;;;;;;;;;;17.26;58.59;103086.16;4891790;29;19924;-81
2022/04/28 00:50:48;;;;;;;;;;;;;;;17.26;58.53;103080.97;4896161;29;20287;-80
2022/04/28 00:53:14;;;;;;;;;;;;;;;17.26;58.47;103082.69;4911293;29;19915;-79
2022/04/28 00:55:40;;;;;;;;;;;;;;;17.25;58.66;103087.03;4891587;29;19915;-82
2022/04/28 00:58:05;;;;;;;;;;;;;;;17.26;57.65;103085.28;4909620;29;19915;-80
2022/04/28 01:00:31;;;;;;;;;;;;;;;17.26;58.08;103087.91;4892855;29;19958;-79
2022/04/28 01:02:56;;;;;;;;;;;;;;;17.24;57.60;103087.84;4892707;29;19924;-80
2022/04/28 01:05:21;;;;;;;;;;;;;;;17.25;57.68;103089.63;4891770;29;19962;-80
2022/04/28 01:07:46;;;;;;;;;;;;;;;17.25;58.42;103078.34;4893757;29;19974;-80
2022/04/28 01:10:12;;;;;;;;;;;;;;;17.25;57.58;103084.41;4909153;29;19924;-80
2022/04/28 01:12:37;;;;;;;;;;;;;;;17.25;57.62;103078.34;4912370;29;19968;-80
2022/04/28 01:15:03;;;;;;;;;;;;;;;17.24;58.11;103077.44;4887571;29;19930;-80
2022/04/28 01:17:28;;;;;;;;;;;;;;;17.25;57.94;103078.34;4903391;29;19928;-80
2022/04/28 01:19:54;;;;;;;;;;;;;;;17.24;57.59;103077.44;4888006;29;19919;-80
2022/04/28 01:22:19;;;;;;;;;;;;;;;17.24;57.93;103076.56;4888594;29;19919;-80
2022/04/28 01:24:44;;;;;;;;;;;;;;;17.24;57.73;103079.16;4890568;29;20327;-80
2022/04/28 01:27:12;;;;;;;;;;;;;;;17.23;57.16;103070.47;4906858;29;19923;-81
2022/04/28 01:29:37;;;;;;;;;;;;;;;17.23;57.59;103078.28;4890490;29;19939;-80
2022/04/28 01:32:03;;;;;;;;;;;;;;;17.22;57.14;103073.03;4891612;29;20426;-80
2022/04/28 01:34:28;;;;;;;;;;;;;;;17.22;57.38;103081.75;4891577;29;19927;-80
2022/04/28 01:36:54;;;;;;;;;;;;;;;17.21;57.14;103077.38;4906435;29;19915;-80
2022/04/28 01:39:20;;;;;;;;;;;;;;;17.22;57.31;103086.03;4907530;29;20276;-81
2022/04/28 01:41:47;;;;;;;;;;;;;;;17.22;57.19;103080.84;4908935;29;19919;-80
2022/04/28 01:44:12;;;;;;;;;;;;;;;17.21;57.55;103079.09;4908039;29;19924;-81
2022/04/28 01:46:37;;;;;;;;;;;;;;;17.21;57.42;103089.50;4891221;29;19924;-80
2022/04/28 01:49:02;;;;;;;;;;;;;;;17.21;56.85;103084.28;4890924;29;20035;-80
2022/04/28 01:56:55;;;;;;;;;;;;;;;17.21;56.72;103098.19;4904883;29;19924;-81
2022/04/28 01:59:21;;;;;;;;;;;;;;;17.21;57.10;103092.09;4903599;29;19924;-80
2022/04/28 02:01:46;;;;;;;;;;;;;;;17.20;56.44;103090.31;4887477;29;20018;-80
2022/04/28 02:04:11;;;;;;;;;;;;;;;17.20;56.63;103093.84;4903440;29;20430;-81
2022/04/28 02:06:36;;;;;;;;;;;;;;;17.20;57.11;103086.03;4890658;29;19975;-80
2022/04/28 02:09:02;;;;;;;;;;;;;;;17.19;57.16;103091.19;4890235;29;20337;-80
2022/04/28 02:11:27;;;;;;;;;;;;;;;17.19;56.87;103084.25;4909273;29;19922;-80
2022/04/28 02:13:52;;;;;;;;;;;;;;;17.19;56.40;103086.84;4894439;29;19927;-80
2022/04/28 02:16:18;;;;;;;;;;;;;;;17.19;56.32;103089.44;4892794;29;19966;-80
2022/04/28 02:18:43;;;;;;;;;;;;;;;17.19;56.10;103088.56;4908824;29;19967;-80
2022/04/28 02:21:09;;;;;;;;;;;;;;;17.19;56.17;103083.38;4889740;29;20379;-80
2022/04/28 02:23:34;;;;;;;;;;;;;;;17.19;56.57;103075.56;4890525;29;19919;-80
2022/04/28 02:25:59;;;;;;;;;;;;;;;17.19;56.05;103083.38;4889991;29;20022;-80
2022/04/28 02:28:24;;;;;;;;;;;;;;;17.18;55.87;103084.19;4890348;29;19920;-80
2022/04/28 02:30:50;;;;;;;;;;;;;;;17.19;56.25;103080.78;4905975;29;19915;-80
2022/04/28 02:33:16;;;;;;;;;;;;;;;17.18;55.63;103079.00;4889703;29;19919;-80
2022/04/28 02:35:42;;;;;;;;;;;;;;;17.19;55.86;103088.56;4907960;29;20003;-79
2022/04/28 02:38:07;;;;;;;;;;;;;;;17.18;55.98;103087.69;4889915;29;19923;-80
2022/04/28 02:40:33;;;;;;;;;;;;;;;17.17;56.35;103093.72;4904353;29;19948;-81
2022/04/28 02:42:59;;;;;;;;;;;;;;;17.17;55.74;103096.34;4905853;29;19979;-81
2022/04/28 02:45:24;;;;;;;;;;;;;;;17.17;56.56;103090.25;4906413;29;19919;-80
2022/04/28 02:47:49;;;;;;;;;;;;;;;17.16;55.92;103094.59;4890223;29;19919;-81
2022/04/28 02:50:14;;;;;;;;;;;;;;;17.17;56.04;103093.72;4890237;29;19967;-81
2022/04/28 02:52:40;;;;;;;;;;;;;;;17.16;55.67;103094.59;4906640;29;19926;-81
2022/04/28 02:55:09;;;;;;;;;;;;;;;17.18;55.52;103099.81;4906500;29;19915;-81
2022/04/28 02:57:34;;;;;;;;;;;;;;;17.17;55.52;103092.84;4906698;29;20394;-81
2022/04/28 03:00:01;;;;;;;;;;;;;;;17.17;55.37;103091.13;4892285;29;19920;-81
2022/04/28 03:02:26;;;;;;;;;;;;;;;17.17;55.36;103092.84;4897349;29;19919;-81
2022/04/28 03:04:51;;;;;;;;;;;;;;;17.17;55.53;103093.72;4908265;29;19967;-81
2022/04/28 03:12:45;;;;;;;;;;;;;;;17.16;55.11;103086.78;4909895;29;19978;-81
2022/04/28 03:15:10;;;;;;;;;;;;;;;17.17;55.14;103085.03;4892849;29;20359;-81
2022/04/28 03:17:36;;;;;;;;;;;;;;;17.17;55.33;103090.25;4908032;29;19920;-78
2022/04/28 03:20:01;;;;;;;;;;;;;;;17.18;55.19;103086.78;4889959;29;19919;-80
2022/04/28 03:22:27;;;;;;;;;;;;;;;17.17;55.08;103092.84;4901146;29;19915;-80
2022/04/28 03:24:52;;;;;;;;;;;;;;;17.16;54.98;103086.78;4889450;29;19924;-80
2022/04/28 03:27:17;;;;;;;;;;;;;;;17.16;54.82;103085.88;4888481;29;19955;-81
2022/04/28 03:29:44;;;;;;;;;;;;;;;17.17;54.76;103085.03;4891992;29;19924;-80
2022/04/28 03:32:10;;;;;;;;;;;;;;;17.17;55.11;103090.25;4891166;29;19920;-80
2022/04/28 03:34:35;;;;;;;;;;;;;;;17.16;54.85;103084.19;4892689;29;19927;-80
2022/04/28 03:37:00;;;;;;;;;;;;;;;17.16;55.11;103088.47;4907652;29;19916;-80
2022/04/28 03:39:26;;;;;;;;;;;;;;;17.16;54.69;103088.47;4907473;29;19915;-80
2022/04/28 03:41:51;;;;;;;;;;;;;;;17.16;55.01;103084.19;4908335;29;19926;-80
2022/04/28 03:44:16;;;;;;;;;;;;;;;17.16;54.68;103089.38;4891177;29;19927;-81
2022/04/28 03:46:41;;;;;;;;;;;;;;;17.16;54.81;103089.38;4891076;29;19955;-80
2022/04/28 03:49:07;;;;;;;;;;;;;;;17.17;54.95;103091.13;4905337;29;20323;-80
2022/04/28 03:51:32;;;;;;;;;;;;;;;17.16;54.79;103089.38;4906895;29;19927;-80
2022/04/28 03:54:00;;;;;;;;;;;;;;;17.14;54.46;103085.84;4906333;29;19915;-80
2022/04/28 03:56:32;;;;;;;;;;;;;;;17.16;55.06;103091.97;4890916;29;19919;-79
2022/04/28 03:59:01;;;;;;;;;;;;;;;17.16;54.31;103091.97;4906687;29;19938;-80
2022/04/28 04:01:26;;;;;;;;;;;;;;;17.16;54.59;103093.69;4912145;29;19959;-80
2022/04/28 04:03:51;;;;;;;;;;;;;;;17.15;54.47;103092.81;4889033;29;19927;-80
2022/04/28 04:06:17;;;;;;;;;;;;;;;17.16;54.64;103091.97;4888888;29;19924;-80
2022/04/28 04:08:42;;;;;;;;;;;;;;;17.16;54.57;103096.28;4888314;29;19956;-80
2022/04/28 04:11:08;;;;;;;;;;;;;;;17.16;54.27;103091.06;4887302;29;20268;-80
2022/04/28 04:13:33;;;;;;;;;;;;;;;17.16;54.36;103088.47;4887474;29;20402;-80
2022/04/28 04:15:59;;;;;;;;;;;;;;;17.16;54.42;103085.88;4904324;29;19967;-80
2022/04/28 04:18:24;;;;;;;;;;;;;;;17.17;54.05;103093.72;4888338;29;20367;-80
2022/04/28 04:20:50;;;;;;;;;;;;;;;17.17;54.48;103087.66;4906393;29;19986;-80
2022/04/28 04:23:15;;;;;;;;;;;;;;;17.18;54.03;103092.00;4889941;29;20011;-81
2022/04/28 04:25:41;;;;;;;;;;;;;;;17.17;53.89;103090.25;4915947;29;19908;-80
2022/04/28 04:28:06;;;;;;;;;;;;;;;17.18;53.95;103092.00;4906461;29;20018;-81
2022/04/28 04:36:21;;;;;;;;;;;;;;;17.19;53.78;103096.38;4920518;29;19954;-78
2022/04/28 04:38:48;;;;;;;;;;;;;;;17.19;53.57;103098.97;4921228;29;19919;-80
2022/04/28 04:41:14;;;;;;;;;;;;;;;17.20;53.42;103100.72;4918654;29;19996;-81
2022/04/28 04:43:47;;;;;;;;;;;;;;;17.20;53.73;103103.34;4901485;29;20429;-81
2022/04/28 04:46:37;;;;;;;;;;;;;;;17.20;53.78;103108.53;4934532;29;19926;-80
2022/04/28 04:52:31;;;;;;;;;;;;;;;17.21;53.45;103113.78;4941812;29;19930;-81
2022/04/28 04:58:41;;;;;;;;;;;;;;;17.21;52.98;103118.13;4920758;29;19930;-85
2022/04/28 05:06:31;;;;;;;;;;;;;;;17.21;53.45;103151.94;5890971;23;19926;-81
2022/04/28 05:11:31;;;;;;;;;;;;;;;17.18;54.62;103149.25;5367325;23;19926;-78
2022/04/28 05:19:07;;;;;;;;;;;;;;;17.32;51.63;103145.31;5064128;23;19910;-82
2022/04/28 05:21:32;;;;;;;;;;;;;;;17.36;51.66;103144.56;4979597;29;19969;-83
2022/04/28 05:29:21;;;;;;;;;;;;;;;17.53;49.46;103149.34;5948398;23;19983;-81
2022/04/28 06:08:07;;;;;;;;;;;;;;;17.75;48.12;103206.41;5294460;23;19933;-85
2022/04/28 06:10:33;;;;;;;;;;;;;;;17.75;48.33;103210.75;5001814;28;19926;-84
2022/04/28 06:12:58;;;;;;;;;;;;;;;17.72;48.54;103208.91;5000805;28;19925;-84
2022/04/28 06:15:24;;;;;;;;;;;;;;;17.72;47.79;103214.13;5001413;28;19929;-84
2022/04/28 06:17:49;;;;;;;;;;;;;;;17.75;48.12;103211.63;5001203;28;19949;-84
2022/04/28 06:20:15;;;;;;;;;;;;;;;17.76;48.12;103217.69;5018486;28;19928;-85
2022/04/28 06:22:44;;;;;;;;;;;;;;;17.75;48.05;103219.44;5001814;28;19906;-84
2022/04/28 06:25:10;;;;;;;;;;;;;;;17.75;48.57;103221.16;5001761;28;19926;-84
2022/04/28 06:27:36;;;;;;;;;;;;;;;17.76;47.90;103225.50;5018790;28;19933;-83
2022/04/28 07:27:16;;;;;;;;;;;;;;;17.86;48.32;103297.91;4923545;29;19935;-85
2022/04/28 07:29:42;;;;;;;;;;;;;;;17.85;47.71;103297.00;4908965;29;20322;-84
2022/04/28 09:16:13;;;;;;;;;;;;;;;18.70;45.62;103315.81;6059637;23;20248;31
2022/04/28 09:18:40;;;;;;;;;;;;;;;18.63;45.91;103313.84;4942753;29;19918;-85
2022/04/28 09:21:05;;;;;;;;;;;;;;;18.60;46.26;103315.53;4945567;29;19927;-84
2022/04/28 09:23:31;;;;;;;;;;;;;;;18.56;47.09;103314.56;4929181;29;19927;-83
2022/04/28 09:25:56;;;;;;;;;;;;;;;18.55;47.65;103311.91;4961372;29;19907;-85
2022/04/28 11:09:57;;;;;;;;;;;;;;;18.44;45.56;103295.97;5857621;23;19984;-80
2022/04/28 11:27:56;;;;;;;;;;;;;;;18.51;46.86;103290.09;5919604;23;19943;-80
2022/04/28 12:29:31;;;;;;;;;;;;;;;18.55;46.46;103286.69;5429473;23;19919;-85
2022/04/28 12:31:57;;;;;;;;;;;;;;;18.58;46.95;103281.59;4967072;28;19911;-84
2022/04/28 12:34:23;;;;;;;;;;;;;;;18.59;46.26;103292.88;4964851;29;19906;-84
2022/04/28 12:36:57;;;;;;;;;;;;;;;18.56;46.09;103288.47;4965680;28;19946;-85
2022/04/28 14:14:01;;;;;;;;;;;;;;;18.49;44.70;103226.59;5852938;23;19965;-77
2022/04/28 14:16:27;;;;;;;;;;;;;;;18.50;43.58;103216.19;4957546;29;19966;-78
2022/04/28 14:18:52;;;;;;;;;;;;;;;18.52;43.70;103217.97;4959564;29;19932;-78
2022/04/28 14:21:17;;;;;;;;;;;;;;;18.49;44.63;103213.56;4957839;29;19915;-79
2022/04/28 14:23:43;;;;;;;;;;;;;;;18.48;44.02;103210.03;4958964;29;19914;-79
2022/04/28 14:26:10;;;;;;;;;;;;;;;18.48;43.92;103207.44;4947339;29;20293;-80
2022/04/28 14:28:43;;;;;;;;;;;;;;;18.51;43.64;103211.88;4965551;28;19907;-81
2022/04/28 14:31:09;;;;;;;;;;;;;;;18.51;43.53;103201.44;4948829;29;19925;-78
2022/04/28 14:33:34;;;;;;;;;;;;;;;18.52;43.90;103203.19;4938466;29;19918;-78
2022/04/28 14:35:59;;;;;;;;;;;;;;;18.52;44.23;103204.94;4921565;29;19923;-78
2022/04/28 14:38:24;;;;;;;;;;;;;;;18.52;44.29;103192.75;4936896;29;19930;-78
2022/04/28 14:40:50;;;;;;;;;;;;;;;18.52;43.59;103202.31;4919865;29;20358;-78
2022/04/28 14:43:15;;;;;;;;;;;;;;;18.50;44.54;103203.16;4919972;29;19919;-78
2022/04/28 14:45:43;;;;;;;;;;;;;;;18.49;43.80;103193.56;4923251;29;19930;-77
2022/04/28 14:48:08;;;;;;;;;;;;;;;18.52;43.70;103192.75;4939139;29;20328;-78
2022/04/28 14:53:17;;;;;;;;;;;;;;;18.57;43.04;103179.84;4942744;29;19941;-78
2022/04/28 14:55:42;;;;;;;;;;;;;;;18.57;43.41;103185.03;4924770;29;20358;-77
2022/04/28 16:16:18;;;;;;;;;;;;;;;18.62;43.06;103186.94;4980425;28;19981;-86
2022/04/28 16:18:45;;;;;;;;;;;;;;;18.62;43.71;103189.53;5128993;23;20164;-82
2022/04/28 16:32:26;;;;;;;;;;;;;;;18.67;43.80;103184.44;5786469;23;19910;-85
2022/04/28 18:08:12;;;;;;;;;;;;;;;18.64;46.51;103203.50;4921244;29;19946;-84
2022/04/28 18:10:39;;;;;;;;;;;;;;;18.63;46.42;103198.22;4921220;29;19946;-85
2022/04/28 18:13:04;;;;;;;;;;;;;;;18.62;46.52;103199.97;4921364;29;19926;-87
2022/04/28 18:15:29;;;;;;;;;;;;;;;18.61;46.52;103194.72;4921330;29;19975;-86
2022/04/28 20:08:31;;;;;;;;;;;;;;;18.43;46.59;103236.88;5663408;23;19918;-84
2022/04/28 21:23:20;;;;;;;;;;;;;;;18.42;46.35;103256.84;5301353;23;19926;-82
2022/04/28 21:33:31;;;;;;;;;;;;;;;18.15;47.19;103259.59;5094819;23;19926;-81
2022/04/28 21:35:57;;;;;;;;;;;;;;;18.13;47.10;103260.41;4994799;28;20064;-81
2022/04/28 21:38:24;;;;;;;;;;;;;;;18.11;46.79;103256.88;4995438;28;20435;-81
2022/04/28 21:40:53;;;;;;;;;;;;;;;18.08;47.00;103262.91;4991406;28;19914;-82
2022/04/28 21:43:19;;;;;;;;;;;;;;;18.07;47.09;103258.50;4996452;28;19938;-81
2022/04/28 21:45:44;;;;;;;;;;;;;;;18.05;46.92;103265.41;4997870;28;19925;-81
2022/04/28 21:48:10;;;;;;;;;;;;;;;18.04;46.90;103256.72;5011217;28;19918;-80
2022/04/28 21:50:35;;;;;;;;;;;;;;;18.04;46.86;103255.84;5011544;28;20281;-82
2022/04/28 21:53:01;;;;;;;;;;;;;;;18.04;46.99;103258.44;4978504;28;19902;-81
2022/04/28 21:55:26;;;;;;;;;;;;;;;18.02;47.08;103268.81;4994983;28;19918;-81
2022/04/28 21:57:53;;;;;;;;;;;;;;;18.02;46.96;103261.00;4978649;28;19996;-81
2022/04/28 22:00:25;;;;;;;;;;;;;;;18.02;46.69;103268.81;4978489;28;19945;-80
2022/04/28 22:02:51;;;;;;;;;;;;;;;18.01;46.87;103267.06;5015963;28;19914;-82
2022/04/28 22:13:28;;;;;;;;;;;;;;;18.00;46.81;103259.19;4999419;28;19968;-83
2022/04/28 22:15:54;;;;;;;;;;;;;;;18.00;46.80;103267.00;5014126;28;19914;-83
2022/04/28 22:18:19;;;;;;;;;;;;;;;17.99;46.79;103266.13;5013254;28;19923;-83
2022/04/28 22:20:44;;;;;;;;;;;;;;;17.98;46.96;103274.78;5012165;28;20340;-82
2022/04/28 22:23:10;;;;;;;;;;;;;;;17.99;47.02;103275.69;4989604;28;19921;-83
2022/04/28 22:25:35;;;;;;;;;;;;;;;17.98;46.99;103276.50;4996309;28;19922;-83
2022/04/28 22:28:01;;;;;;;;;;;;;;;17.98;46.77;103271.28;4995850;28;19921;-83
2022/04/28 22:30:26;;;;;;;;;;;;;;;17.97;46.80;103279.97;4976805;28;19919;-83
2022/04/28 22:32:51;;;;;;;;;;;;;;;17.96;46.82;103262.56;4976875;28;19933;-82
2022/04/28 22:35:18;;;;;;;;;;;;;;;17.96;46.95;103263.44;4976382;28;19918;-82
2022/04/28 22:37:44;;;;;;;;;;;;;;;17.96;46.75;103273.84;4976036;28;19998;-82
2022/04/28 22:40:10;;;;;;;;;;;;;;;17.96;46.96;103257.34;4993751;28;19921;-83
2022/04/28 22:42:37;;;;;;;;;;;;;;;17.95;47.00;103256.47;4976477;28;19985;-83
2022/04/28 22:45:03;;;;;;;;;;;;;;;17.95;46.87;103258.19;4974805;28;19922;-82
2022/04/28 22:47:28;;;;;;;;;;;;;;;17.95;46.95;103255.59;4959509;28;19929;-83
2022/04/28 22:49:54;;;;;;;;;;;;;;;17.95;46.83;103261.69;4992571;28;19981;-83
2022/04/28 22:52:19;;;;;;;;;;;;;;;17.94;46.78;103269.44;4976237;28;19914;-82
2022/04/28 22:54:45;;;;;;;;;;;;;;;17.93;47.06;103270.31;4976092;28;19921;-83
2022/04/28 22:57:10;;;;;;;;;;;;;;;17.94;46.95;103259.91;4993796;28;19914;-82
2022/04/28 22:59:36;;;;;;;;;;;;;;;17.93;46.74;103258.16;4960615;28;19925;-82
2022/04/28 23:02:03;;;;;;;;;;;;;;;17.93;46.84;103265.97;4976511;28;19918;-82
2022/04/28 23:04:28;;;;;;;;;;;;;;;17.93;46.78;103270.31;4970618;28;19946;-82
2022/04/28 23:06:54;;;;;;;;;;;;;;;17.92;46.81;103266.81;4960101;28;19954;-82
2022/04/28 23:09:19;;;;;;;;;;;;;;;17.92;46.79;103272.03;4993622;28;19981;-82
2022/04/28 23:11:44;;;;;;;;;;;;;;;17.92;46.77;103273.72;4995399;28;19914;-82
2022/04/28 23:14:10;;;;;;;;;;;;;;;17.91;46.78;103274.59;4961643;28;19958;-83
2022/04/28 23:16:35;;;;;;;;;;;;;;;17.91;46.79;103269.38;4977552;28;19921;-82
2022/04/28 23:19:00;;;;;;;;;;;;;;;17.90;46.79;103271.09;4976792;28;19941;-83
2022/04/28 23:21:26;;;;;;;;;;;;;;;17.89;46.98;103275.41;4976742;28;19918;-83
2022/04/28 23:23:53;;;;;;;;;;;;;;;17.89;47.03;103272.81;4993336;28;19918;-83
2022/04/28 23:26:18;;;;;;;;;;;;;;;17.89;46.81;103264.97;4975778;28;19922;-82
2022/04/28 23:28:43;;;;;;;;;;;;;;;17.88;46.81;103262.38;4961446;28;20024;-83
2022/04/28 23:31:09;;;;;;;;;;;;;;;17.87;46.94;103261.44;4977332;28;19918;-83
2022/04/28 23:33:34;;;;;;;;;;;;;;;17.87;46.82;103261.44;4994585;28;19933;-83
2022/04/28 23:38:43;;;;;;;;;;;;;;;17.86;47.03;103264.03;4994508;28;19922;-82
2022/04/28 23:41:09;;;;;;;;;;;;;;;17.86;46.98;103259.72;4977412;28;19918;-83
2022/04/28 23:43:34;;;;;;;;;;;;;;;17.86;46.98;103256.22;4977420;28;19945;-82
2022/04/28 23:45:59;;;;;;;;;;;;;;;17.86;46.85;103251.00;4962117;28;19993;-82
2022/04/28 23:48:24;;;;;;;;;;;;;;;17.86;46.98;103246.69;4975165;28;19972;-82
2022/04/28 23:50:50;;;;;;;;;;;;;;;17.86;46.95;103243.19;5001345;28;19898;-82
2022/04/28 23:55:59;;;;;;;;;;;;;;;17.84;46.98;103237.06;5001367;28;19981;-82
2022/04/28 23:58:24;;;;;;;;;;;;;;;17.83;46.73;103246.59;4966888;28;19918;-83
